Time;durP1;ratioP1;P1;durP2;ratioP2;P2;SDS_P1;SDS_P2;PMS_P1;PMS_P2;Temp;Humidity;BMP_temperature;BMP_pressure;BME280_temperature;BME280_humidity;BME280_pressure;Samples;Min_cycle;Max_cycle;Signal;HPM_P1;HPM_P2
2023/01/30 00:00:23;;;;;;;112.32;57.22;;;;;;;3.38;100.00;100637.72;5037843;28;20076;-74
2023/01/30 00:02:48;;;;;;;114.13;58.10;;;;;;;3.39;100.00;100631.41;5020275;28;20056;-73
2023/01/30 00:05:14;;;;;;;119.88;54.67;;;;;;;3.43;100.00;100638.22;5038140;28;20068;-73
2023/01/30 00:07:39;;;;;;;116.63;55.90;;;;;;;3.41;100.00;100600.03;5019854;28;20069;-73
2023/01/30 00:10:05;;;;;;;122.07;53.30;;;;;;;3.49;100.00;100605.63;5036896;28;20048;-74
2023/01/30 00:12:30;;;;;;;119.78;52.70;;;;;;;3.50;100.00;100571.69;5020169;28;20056;-74
2023/01/30 00:14:55;;;;;;;124.22;68.65;;;;;;;3.43;100.00;100635.53;5038531;28;20068;-74
2023/01/30 00:17:21;;;;;;;124.32;58.60;;;;;;;3.43;100.00;100614.13;5038626;28;20044;-74
2023/01/30 00:19:46;;;;;;;123.28;55.25;;;;;;;3.52;100.00;100584.00;5038239;28;20475;-74
2023/01/30 00:22:11;;;;;;;132.15;61.17;;;;;;;3.58;100.00;100597.84;5020529;28;20081;-74
2023/01/30 00:24:37;;;;;;;129.85;61.60;;;;;;;3.60;100.00;100601.28;5038525;28;20390;-75
2023/01/30 00:27:02;;;;;;;130.25;66.55;;;;;;;3.56;100.00;100600.66;5037629;28;20041;-74
2023/01/30 00:29:27;;;;;;;125.10;57.95;;;;;;;3.70;100.00;100578.13;5020745;28;20041;-74
2023/01/30 00:31:53;;;;;;;125.13;56.10;;;;;;;3.71;100.00;100558.41;5036227;28;20048;-74
2023/01/30 00:34:18;;;;;;;141.52;64.13;;;;;;;3.63;100.00;100536.78;5022746;28;20025;-75
2023/01/30 00:36:43;;;;;;;122.57;66.45;;;;;;;3.72;100.00;100544.09;5053221;28;20121;-74
2023/01/30 00:39:09;;;;;;;123.80;58.95;;;;;;;3.74;100.00;100539.44;5025563;28;20036;-75
2023/01/30 00:47:05;;;;;;;123.32;66.00;;;;;;;3.81;100.00;100572.78;5027374;28;20042;-74
2023/01/30 00:49:30;;;;;;;119.55;63.03;;;;;;;3.82;100.00;100510.22;5049882;28;20029;-74
2023/01/30 00:51:56;;;;;;;124.10;57.63;;;;;;;3.92;100.00;100515.69;5015890;28;20172;-74
2023/01/30 00:54:21;;;;;;;118.53;58.30;;;;;;;3.90;100.00;100497.06;5034283;28;20025;-74
2023/01/30 00:56:47;;;;;;;111.18;56.00;;;;;;;3.93;100.00;100496.81;5015172;28;20050;-73
2023/01/30 00:59:12;;;;;;;128.23;54.53;;;;;;;4.01;100.00;100489.00;5034642;28;20022;-73
2023/01/30 01:01:37;;;;;;;105.85;51.67;;;;;;;4.06;100.00;100485.97;5015983;28;20036;-74
2023/01/30 01:04:03;;;;;;;108.47;56.13;;;;;;;4.01;100.00;100475.63;5015814;28;20029;-73
2023/01/30 01:06:29;;;;;;;104.18;51.75;;;;;;;3.99;100.00;100464.19;5015503;28;20038;-72
2023/01/30 01:08:54;;;;;;;111.03;57.83;;;;;;;4.06;100.00;100451.97;5049135;28;20444;-72
2023/01/30 01:11:25;;;;;;;107.05;51.60;;;;;;;4.22;100.00;100470.31;5015557;28;20033;-73
2023/01/30 01:13:53;;;;;;;98.78;52.70;;;;;;;4.14;100.00;100466.56;5016690;28;20052;-73
2023/01/30 01:16:19;;;;;;;108.82;50.92;;;;;;;4.13;100.00;100459.53;5015844;28;20048;-72
2023/01/30 01:18:45;;;;;;;115.72;53.50;;;;;;;4.15;100.00;100452.19;5016114;28;20021;-73
2023/01/30 01:21:12;;;;;;;110.28;52.38;;;;;;;4.21;100.00;100431.09;5015817;28;20087;-73
2023/01/30 01:23:37;;;;;;;97.53;47.65;;;;;;;4.23;100.00;100426.44;5015739;28;20014;-73
2023/01/30 01:26:02;;;;;;;110.72;55.78;;;;;;;4.16;100.00;100437.81;5016079;28;20121;-73
2023/01/30 01:28:28;;;;;;;112.65;52.58;;;;;;;4.17;100.00;100423.44;5033743;28;20021;-73
2023/01/30 01:30:53;;;;;;;111.78;53.00;;;;;;;4.12;100.00;100431.03;5015445;28;20042;-73
2023/01/30 01:33:19;;;;;;;103.35;56.13;;;;;;;4.18;100.00;100401.06;5016278;28;20025;-74
2023/01/30 01:35:46;;;;;;;112.07;58.00;;;;;;;4.13;100.00;100406.78;5021212;28;20433;-73
2023/01/30 01:38:12;;;;;;;111.63;51.83;;;;;;;4.18;100.00;100387.66;5055012;28;20072;-72
2023/01/30 01:43:24;;;;;;;106.82;54.97;;;;;;;4.23;100.00;100420.25;5033450;28;20021;-73
2023/01/30 01:45:57;;;;;;;104.53;62.55;;;;;;;4.25;100.00;100394.19;5015181;28;20041;-73
2023/01/30 01:48:30;;;;;;;119.45;50.47;;;;;;;4.32;100.00;100406.09;5015489;28;20052;-73
2023/01/30 01:51:07;;;;;;;106.82;54.45;;;;;;;4.32;100.00;100379.28;5014251;28;20069;-73
2023/01/30 01:53:38;;;;;;;104.13;51.85;;;;;;;4.29;100.00;100423.25;5032593;28;20470;-74
2023/01/30 01:56:05;;;;;;;118.03;62.67;;;;;;;4.27;100.00;100378.81;5013578;28;20025;-75
2023/01/30 01:58:36;;;;;;;128.98;54.97;;;;;;;4.34;100.00;100367.44;5032158;28;20121;-74
2023/01/30 02:01:02;;;;;;;120.20;54.83;;;;;;;4.32;100.00;100377.47;5031993;28;20046;-75
2023/01/30 02:03:31;;;;;;;111.20;51.22;;;;;;;4.34;100.00;100355.88;5037127;28;20028;-75
2023/01/30 02:06:00;;;;;;;109.30;50.95;;;;;;;4.38;100.00;100370.72;5030004;28;20049;-77
2023/01/30 02:08:33;;;;;;;111.80;52.95;;;;;;;4.39;100.00;100347.47;5061023;28;20030;-77
2023/01/30 02:11:20;;;;;;;113.60;55.72;;;;;;;4.44;100.00;100356.81;5018622;28;20124;-78
2023/01/30 02:13:47;;;;;;;102.60;53.20;;;;;;;4.40;100.00;100347.31;5033500;28;20025;-77
2023/01/30 02:16:13;;;;;;;101.13;49.22;;;;;;;4.53;100.00;100356.00;5036943;28;20048;-77
2023/01/30 02:18:42;;;;;;;112.60;50.97;;;;;;;4.48;100.00;100341.28;5024819;28;20021;-78
2023/01/30 02:21:16;;;;;;;103.10;49.83;;;;;;;4.46;100.00;100338.75;5029451;28;20021;-78
2023/01/30 02:24:03;;;;;;;99.07;49.97;;;;;;;4.44;100.00;100345.25;5039442;28;20029;-79
2023/01/30 02:27:07;;;;;;;109.22;49.00;;;;;;;4.52;100.00;100311.41;5046937;28;20472;-79
2023/01/30 02:29:35;;;;;;;103.00;52.58;;;;;;;4.47;100.00;100321.69;5060823;28;20103;-78
2023/01/30 02:32:13;;;;;;;89.93;50.47;;;;;;;4.52;100.00;100351.63;5045288;28;20048;-78
2023/01/30 02:34:50;;;;;;;101.00;44.33;;;;;;;4.52;100.00;100311.41;5045096;28;20025;-80
2023/01/30 02:37:35;;;;;;;91.40;48.75;;;;;;;4.57;100.00;100298.47;5047202;28;20038;-80
2023/01/30 02:40:15;;;;;;;88.15;42.40;;;;;;;4.63;100.00;100335.47;5028512;28;20037;-78
2023/01/30 02:42:56;;;;;;;97.45;47.33;;;;;;;4.65;100.00;100311.19;5045668;28;20029;-78
2023/01/30 02:45:28;;;;;;;102.00;49.07;;;;;;;4.71;100.00;100309.81;5028011;28;20485;-78
2023/01/30 02:48:00;;;;;;;86.95;43.65;;;;;;;4.76;100.00;100286.09;5034344;28;20053;-77
2023/01/30 02:50:36;;;;;;;96.70;46.47;;;;;;;4.66;100.00;100301.31;5049927;28;20382;-77
2023/01/30 02:53:04;;;;;;;85.15;44.70;;;;;;;4.73;100.00;100294.44;5018702;28;20072;-77
2023/01/30 02:55:29;;;;;;;91.75;47.80;;;;;;;4.72;100.00;100284.69;5033633;28;20036;-77
2023/01/30 02:57:55;;;;;;;85.78;40.47;;;;;;;4.88;100.00;100295.75;5035091;28;20025;-77
2023/01/30 03:01:02;;;;;;;79.68;41.50;;;;;;;4.84;100.00;100283.63;5035676;28;20028;-77
2023/01/30 03:03:56;;;;;;;82.55;44.70;;;;;;;4.88;100.00;100282.34;5024023;28;20071;-77
2023/01/30 03:06:54;;;;;;;83.13;40.22;;;;;;;4.90;100.00;100261.63;5065246;28;20056;-80
2023/01/30 03:09:58;;;;;;;76.38;38.35;;;;;;;4.89;100.00;100270.66;5042678;28;20053;-80
2023/01/30 03:12:44;;;;;;;70.40;38.72;;;;;;;4.99;100.00;100271.50;5049569;28;20502;-79
2023/01/30 03:15:37;;;;;;;70.25;35.25;;;;;;;4.91;100.00;100252.56;5035537;28;20038;-79
2023/01/30 03:18:03;;;;;;;82.00;39.22;;;;;;;4.95;100.00;100248.63;5021161;28;20119;-79
2023/01/30 03:20:30;;;;;;;63.97;35.20;;;;;;;5.00;100.00;100246.38;5029569;28;20021;-79
2023/01/30 03:25:27;;;;;;;63.17;33.70;;;;;;;5.02;100.00;100239.06;5036901;28;20218;-73
2023/01/30 03:27:54;;;;;;;64.00;32.67;;;;;;;5.08;100.00;100226.91;5011558;28;20049;-73
2023/01/30 03:30:20;;;;;;;63.47;31.20;;;;;;;5.22;100.00;100234.56;5018736;28;20120;-73
2023/01/30 03:32:45;;;;;;;53.97;30.00;;;;;;;5.17;100.00;100216.19;5011821;28;20033;-74
2023/01/30 03:35:11;;;;;;;62.35;33.83;;;;;;;5.15;100.00;100247.69;5033778;28;20067;-73
2023/01/30 03:37:37;;;;;;;60.55;33.85;;;;;;;5.13;100.00;100233.56;5014324;28;20030;-73
2023/01/30 03:40:03;;;;;;;55.38;34.60;;;;;;;5.12;100.00;100234.53;5031069;28;20037;-72
2023/01/30 03:42:29;;;;;;;55.53;29.60;;;;;;;5.18;100.00;100217.88;5012511;28;20382;-72
2023/01/30 03:44:54;;;;;;;56.35;30.52;;;;;;;5.23;100.00;100214.78;4993702;28;20033;-72
2023/01/30 03:47:20;;;;;;;53.08;28.33;;;;;;;5.30;100.00;100201.66;4992834;28;20042;-72
2023/01/30 03:49:45;;;;;;;56.25;28.85;;;;;;;5.27;100.00;100188.50;5011384;28;20093;-75
2023/01/30 03:52:11;;;;;;;49.08;26.75;;;;;;;5.33;100.00;100196.00;5010452;28;20053;-75
2023/01/30 03:54:36;;;;;;;45.47;25.92;;;;;;;5.22;100.00;100185.41;5003833;28;20208;-74
2023/01/30 03:57:01;;;;;;;56.13;26.10;;;;;;;5.32;100.00;100192.47;5011208;28;20091;-74
2023/01/30 03:59:27;;;;;;;45.55;26.98;;;;;;;5.22;100.00;100196.16;5007849;28;20029;-74
2023/01/30 04:01:52;;;;;;;51.13;26.50;;;;;;;5.33;100.00;100194.16;5027632;28;20038;-74
2023/01/30 04:04:18;;;;;;;59.28;29.15;;;;;;;5.34;100.00;100182.44;5013875;28;20392;-74
2023/01/30 04:06:43;;;;;;;56.95;27.45;;;;;;;5.40;100.00;100195.28;5039901;28;20147;-75
2023/01/30 04:09:08;;;;;;;49.28;25.08;;;;;;;5.40;100.00;100151.50;5002768;28;20072;-75
2023/01/30 04:11:34;;;;;;;52.15;29.95;;;;;;;5.34;100.00;100227.22;5044257;28;20038;-75
2023/01/30 04:13:59;;;;;;;50.78;24.80;;;;;;;5.42;100.00;100165.63;5011542;28;20035;-76
2023/01/30 04:16:26;;;;;;;49.13;25.02;;;;;;;5.43;100.00;100167.31;5011148;28;20026;-75
2023/01/30 04:18:52;;;;;;;45.10;23.73;;;;;;;5.41;100.00;100175.53;5014474;28;20017;-76
2023/01/30 04:21:18;;;;;;;52.65;23.63;;;;;;;5.47;100.00;100179.44;5015334;28;20440;-77
2023/01/30 04:23:43;;;;;;;47.05;22.85;;;;;;;5.55;100.00;100171.56;5015724;28;20021;-75
2023/01/30 04:26:09;;;;;;;56.22;22.98;;;;;;;5.59;100.00;100199.78;5015187;28;20664;-75
2023/01/30 04:28:35;;;;;;;58.50;23.33;;;;;;;5.52;100.00;100214.78;5032423;28;20516;-76
2023/01/30 04:31:01;;;;;;;29.67;13.95;;;;;;;5.49;100.00;100215.09;5032400;28;20072;-75
2023/01/30 04:33:26;;;;;;;26.80;12.43;;;;;;;5.45;100.00;100208.28;5029404;28;20501;-75
2023/01/30 04:35:58;;;;;;;21.67;10.05;;;;;;;5.48;100.00;100208.03;5024170;28;20056;-76
2023/01/30 04:38:24;;;;;;;;;;;;;;;5.49;100.00;100198.97;5021483;28;20033;-74
2023/01/30 04:40:52;;;;;;;16.73;5.53;;;;;;;5.55;100.00;100187.66;5048918;28;20392;-74
2023/01/30 04:43:19;;;;;;;11.43;5.00;;;;;;;5.60;100.00;100204.16;5016138;28;20108;-76
2023/01/30 04:45:45;;;;;;;10.70;4.70;;;;;;;5.54;100.00;100207.47;5048401;28;20028;-74
2023/01/30 04:48:11;;;;;;;19.13;5.13;;;;;;;5.54;100.00;100201.22;5049215;28;20017;-74
2023/01/30 04:50:37;;;;;;;17.30;5.50;;;;;;;5.60;100.00;100212.22;5039821;28;20021;-74
2023/01/30 04:53:03;;;;;;;20.38;5.28;;;;;;;5.63;100.00;100198.53;5048245;28;20022;-74
2023/01/30 04:55:28;;;;;;;19.30;4.55;;;;;;;5.56;100.00;100192.03;5014915;28;20112;-74
2023/01/30 04:57:54;;;;;;;15.65;4.70;;;;;;;5.52;100.00;100187.94;5015398;28;20496;-72
2023/01/30 05:00:19;;;;;;;24.13;6.80;;;;;;;5.60;100.00;100173.78;5015964;28;20022;-74
2023/01/30 05:02:45;;;;;;;20.58;7.32;;;;;;;5.65;100.00;100175.06;5014923;28;20561;-75
2023/01/30 05:05:10;;;;;;;28.85;7.95;;;;;;;5.64;100.00;100197.53;5019400;28;20481;-72
2023/01/30 05:07:35;;;;;;;27.05;8.93;;;;;;;5.58;100.00;100195.41;5034296;28;20057;-72
2023/01/30 05:10:01;;;;;;;34.88;8.93;;;;;;;5.75;100.00;100193.00;5016500;28;20119;-72
2023/01/30 05:12:27;;;;;;;23.77;8.35;;;;;;;5.71;100.00;100193.28;5031984;28;20040;-72
2023/01/30 05:14:53;;;;;;;20.40;8.00;;;;;;;5.71;100.00;100187.91;5015148;28;20021;-71
2023/01/30 05:17:18;;;;;;;24.80;7.45;;;;;;;5.68;100.00;100193.59;5014339;28;20029;-71
2023/01/30 05:19:44;;;;;;;24.05;7.25;;;;;;;5.59;100.00;100189.06;5015166;28;20021;-71
2023/01/30 05:22:09;;;;;;;27.30;7.28;;;;;;;5.70;100.00;100186.22;5014852;28;20030;-72
2023/01/30 05:24:35;;;;;;;27.90;6.80;;;;;;;5.63;100.00;100185.09;5033002;28;20029;-72
2023/01/30 05:27:01;;;;;;;27.38;6.30;;;;;;;5.64;100.00;100189.47;5014516;28;20037;-72
2023/01/30 05:29:26;;;;;;;30.30;6.45;;;;;;;5.66;100.00;100195.53;5000332;28;20030;-73
2023/01/30 05:31:52;;;;;;;20.40;4.65;;;;;;;5.57;100.00;100183.00;4994314;28;20037;-71
2023/01/30 05:34:17;;;;;;;27.67;4.53;;;;;;;5.65;100.00;100177.75;5025899;28;20028;-71
2023/01/30 05:36:43;;;;;;;14.98;3.67;;;;;;;5.53;100.00;100176.19;5014201;28;20060;-71
2023/01/30 05:39:08;;;;;;;21.08;5.00;;;;;;;5.49;100.00;100193.59;4995531;28;20117;-72
2023/01/30 05:41:33;;;;;;;23.40;4.13;;;;;;;5.54;100.00;100183.28;5009367;28;20060;-72
2023/01/30 05:43:59;;;;;;;26.33;4.45;;;;;;;5.52;100.00;100185.25;4998322;28;20071;-71
2023/01/30 05:46:24;;;;;;;28.85;4.32;;;;;;;5.50;100.00;100184.56;5000617;28;20034;-71
2023/01/30 05:48:49;;;;;;;27.80;4.18;;;;;;;5.56;100.00;100178.63;5004097;28;20108;-71
2023/01/30 05:51:21;;;;;;;29.48;4.40;;;;;;;5.45;100.00;100186.81;5013756;28;20041;-70
2023/01/30 05:53:47;;;;;;;33.53;4.30;;;;;;;5.57;100.00;100191.03;5014326;28;20053;-72
2023/01/30 05:56:12;;;;;;;23.23;3.92;;;;;;;5.48;100.00;100181.19;5031160;28;20437;-70
2023/01/30 05:58:37;;;;;;;33.45;4.72;;;;;;;5.38;100.00;100183.00;5014448;28;20022;-70
2023/01/30 06:01:05;;;;;;;27.92;4.93;;;;;;;5.41;100.00;100180.03;5013284;28;20041;-71
2023/01/30 06:03:31;;;;;;;30.67;5.15;;;;;;;5.49;100.00;100172.13;5014379;28;20093;-71
2023/01/30 06:05:56;;;;;;;46.20;5.30;;;;;;;5.34;100.00;100168.16;5013307;28;20128;-73
2023/01/30 06:08:22;;;;;;;30.77;5.18;;;;;;;5.22;100.00;100169.31;5013987;28;20022;-72
2023/01/30 06:10:48;;;;;;;31.65;3.80;;;;;;;5.22;100.00;100169.31;5030094;28;20045;-72
2023/01/30 06:13:13;;;;;;;34.63;4.55;;;;;;;5.28;100.00;100168.72;5030905;28;20036;-74
2023/01/30 06:15:39;;;;;;;28.02;4.10;;;;;;;5.27;100.00;100183.13;5026651;28;20061;-73
2023/01/30 06:18:04;;;;;;;44.28;5.57;;;;;;;5.28;100.00;100174.09;5022364;28;20029;-73
2023/01/30 06:20:30;;;;;;;25.70;3.90;;;;;;;5.17;100.00;100178.63;5031479;28;20107;-73
2023/01/30 06:22:55;;;;;;;29.02;4.50;;;;;;;5.14;100.00;100181.56;5031861;28;20044;-72
2023/01/30 06:25:20;;;;;;;36.72;3.70;;;;;;;5.15;100.00;100180.63;5027403;28;20053;-73
2023/01/30 06:27:46;;;;;;;37.83;6.93;;;;;;;5.05;100.00;100195.84;5001898;28;20037;-73
2023/01/30 06:30:11;;;;;;;38.28;4.45;;;;;;;5.11;100.00;100187.25;5013887;28;20017;-73
2023/01/30 06:32:37;;;;;;;32.03;4.03;;;;;;;5.01;100.00;100194.41;5012776;28;20494;-74
2023/01/30 06:35:03;;;;;;;45.25;5.55;;;;;;;5.05;100.00;100195.84;5033294;28;20018;-73
2023/01/30 06:37:28;;;;;;;32.42;4.78;;;;;;;4.94;100.00;100195.97;5032560;28;20033;-73
2023/01/30 06:39:54;;;;;;;24.45;3.90;;;;;;;4.89;100.00;100206.28;5015815;28;20091;-73
2023/01/30 06:42:19;;;;;;;40.63;5.35;;;;;;;4.89;100.00;100206.28;5012109;28;20037;-73
2023/01/30 06:44:45;;;;;;;39.95;4.60;;;;;;;4.89;100.00;100206.28;5013453;28;20028;-74
2023/01/30 06:47:10;;;;;;;35.15;4.57;;;;;;;4.81;100.00;100203.41;5012710;28;20095;-71
2023/01/30 06:49:35;;;;;;;39.00;3.97;;;;;;;4.84;100.00;100216.56;5013231;28;20040;-73
2023/01/30 06:52:01;;;;;;;45.15;5.80;;;;;;;4.87;100.00;100197.50;5012452;28;20044;-73
2023/01/30 06:54:26;;;;;;;47.22;5.20;;;;;;;4.93;100.00;100207.69;5013192;28;20044;-74
2023/01/30 06:56:52;;;;;;;30.73;5.05;;;;;;;4.84;100.00;100213.88;5012375;28;20025;-73
2023/01/30 06:59:18;;;;;;;36.85;4.55;;;;;;;4.85;100.00;100215.56;5013202;28;20021;-74
2023/01/30 07:01:43;;;;;;;38.63;5.32;;;;;;;4.87;100.00;100208.22;5011953;28;20516;-72
2023/01/30 07:04:08;;;;;;;28.75;4.18;;;;;;;4.95;100.00;100211.06;5013444;28;20029;-74
2023/01/30 07:06:34;;;;;;;33.35;6.55;;;;;;;4.73;100.00;100216.66;5034126;28;20037;-74
2023/01/30 07:09:00;;;;;;;42.05;5.43;;;;;;;4.84;100.00;100224.63;4995306;28;20036;-74
2023/01/30 07:11:25;;;;;;;41.17;5.80;;;;;;;4.75;100.00;100225.41;5025153;28;20030;-73
2023/01/30 07:13:51;;;;;;;32.97;4.95;;;;;;;4.77;100.00;100218.09;5009916;28;20144;-74
2023/01/30 07:16:17;;;;;;;43.63;5.53;;;;;;;4.74;100.00;100213.84;5012597;28;20022;-74
2023/01/30 07:18:42;;;;;;;35.55;4.93;;;;;;;4.90;100.00;100224.06;5012627;28;20501;-74
2023/01/30 07:21:08;;;;;;;38.03;4.65;;;;;;;4.95;100.00;100216.44;5028842;28;20053;-73
2023/01/30 07:23:33;;;;;;;36.10;4.57;;;;;;;4.93;100.00;100207.69;5013139;28;20036;-74
2023/01/30 07:26:03;;;;;;;32.50;4.35;;;;;;;4.96;100.00;100202.06;5012594;28;20513;-74
2023/01/30 07:28:28;;;;;;;38.28;5.50;;;;;;;4.99;100.00;100191.03;5012321;28;20117;-72
2023/01/30 07:30:53;;;;;;;48.13;5.28;;;;;;;4.89;100.00;100190.19;5028567;28;20112;-72
2023/01/30 07:33:19;;;;;;;33.97;3.90;;;;;;;4.93;100.00;100202.31;5012132;28;20109;-72
2023/01/30 07:35:45;;;;;;;57.50;5.90;;;;;;;4.99;100.00;100201.75;5017868;28;20086;-72
2023/01/30 07:38:10;;;;;;;42.05;5.22;;;;;;;4.92;100.00;100211.34;5019275;28;20021;-72
2023/01/30 07:40:35;;;;;;;46.20;4.90;;;;;;;5.00;100.00;100211.50;5011375;28;20021;-72
2023/01/30 07:43:06;;;;;;;39.90;5.45;;;;;;;4.97;100.00;100211.78;5030017;28;20021;-72
2023/01/30 07:45:40;;;;;;;39.27;6.80;;;;;;;4.98;100.00;100213.50;5010954;28;20048;-70
2023/01/30 07:48:06;;;;;;;50.88;6.82;;;;;;;5.01;100.00;100194.41;5013977;28;20033;-70
2023/01/30 07:50:32;;;;;;;61.13;6.55;;;;;;;5.03;100.00;100208.56;4991836;28;20050;-72
2023/01/30 07:52:57;;;;;;;56.95;6.88;;;;;;;5.13;100.00;100219.28;5013986;28;20060;-72
2023/01/30 07:55:23;;;;;;;57.78;8.02;;;;;;;5.13;100.00;100216.59;5010169;28;20091;-71
2023/01/30 07:57:48;;;;;;;57.08;9.20;;;;;;;5.02;100.00;100201.50;5018762;28;20033;-71
2023/01/30 08:00:15;;;;;;;62.13;7.55;;;;;;;5.00;100.00;100224.91;5016799;28;20051;-70
2023/01/30 08:02:40;;;;;;;75.25;10.52;;;;;;;4.97;100.00;100219.84;5034324;28;20091;-70
2023/01/30 08:05:06;;;;;;;71.15;7.40;;;;;;;5.00;100.00;100214.19;5016501;28;20116;-71
2023/01/30 08:07:32;;;;;;;62.83;8.43;;;;;;;5.07;100.00;100212.63;5019451;28;20026;-72
2023/01/30 08:09:57;;;;;;;69.30;9.27;;;;;;;5.21;100.00;100221.28;5014961;28;20025;-70
2023/01/30 08:12:22;;;;;;;75.55;9.82;;;;;;;5.22;100.00;100217.63;5039658;28;20052;-71
2023/01/30 08:14:48;;;;;;;71.05;8.30;;;;;;;5.29;100.00;100234.88;5031035;28;20031;-71
2023/01/30 08:17:13;;;;;;;78.15;10.43;;;;;;;5.15;100.00;100202.09;5027099;28;20437;-70
2023/01/30 08:19:39;;;;;;;59.03;9.93;;;;;;;5.18;100.00;100201.78;5013860;28;20031;-71
2023/01/30 08:22:04;;;;;;;73.72;9.63;;;;;;;5.27;100.00;100181.31;5007813;28;20037;-72
2023/01/30 08:24:29;;;;;;;72.22;10.10;;;;;;;5.24;100.00;100211.13;5015804;28;20047;-70
2023/01/30 08:26:55;;;;;;;85.63;10.20;;;;;;;5.20;100.00;100224.94;5019368;28;20067;-71
2023/01/30 08:29:20;;;;;;;68.82;10.10;;;;;;;5.17;100.00;100221.56;5015437;28;20014;-70
2023/01/30 08:32:06;;;;;;;72.00;8.32;;;;;;;5.16;100.00;100219.88;5018699;28;20052;-73
2023/01/30 08:34:32;;;;;;;69.60;8.35;;;;;;;5.21;100.00;100215.91;5010016;28;20021;-71
2023/01/30 08:36:57;;;;;;;92.25;12.73;;;;;;;5.16;100.00;100219.88;5014549;28;20056;-71
2023/01/30 08:39:23;;;;;;;61.22;9.63;;;;;;;5.24;100.00;100210.28;5032999;28;20095;-68
2023/01/30 08:41:48;;;;;;;70.80;10.43;;;;;;;5.43;100.00;100199.53;5015605;28;20044;-71
2023/01/30 08:44:13;;;;;;;74.80;10.23;;;;;;;5.32;100.00;100207.72;5017443;28;20032;-70
2023/01/30 08:46:39;;;;;;;76.70;12.55;;;;;;;5.37;100.00;100229.63;5009339;28;20026;-69
2023/01/30 08:49:05;;;;;;;68.57;9.80;;;;;;;5.44;100.00;100222.72;5024438;28;20040;-71
2023/01/30 08:51:30;;;;;;;57.03;8.70;;;;;;;5.44;100.00;100207.44;5012376;28;20048;-70
2023/01/30 08:53:56;;;;;;;56.97;8.75;;;;;;;5.39;100.00;100219.59;5018726;28;20036;-69
2023/01/30 08:56:21;;;;;;;77.60;9.80;;;;;;;5.47;100.00;100217.03;5022127;28;20026;-69
2023/01/30 08:58:47;;;;;;;68.20;10.05;;;;;;;5.50;100.00;100211.41;5009470;28;20028;-71
2023/01/30 09:01:14;;;;;;;83.32;11.82;;;;;;;5.59;100.00;100220.44;5017648;28;20033;-70
2023/01/30 09:03:40;;;;;;;84.50;10.82;;;;;;;5.70;100.00;100207.72;5015515;28;20033;-70
2023/01/30 09:06:06;;;;;;;85.18;10.40;;;;;;;5.69;100.00;100200.66;5009719;28;20033;-70
2023/01/30 09:08:31;;;;;;;81.93;12.02;;;;;;;5.76;100.00;100221.56;5014039;28;20028;-69
2023/01/30 09:10:58;;;;;;;67.45;9.05;;;;;;;5.77;100.00;100204.44;5008780;28;20045;-68
2023/01/30 09:13:24;;;;;;;63.33;10.50;;;;;;;5.76;100.00;100216.19;5010576;28;20029;-72
2023/01/30 09:15:49;;;;;;;76.30;9.73;;;;;;;5.73;100.00;100220.84;5020086;28;20401;-69
2023/01/30 09:18:15;;;;;;;74.82;10.20;;;;;;;5.71;100.00;100198.66;5012751;28;20078;-70
2023/01/30 09:20:40;;;;;;;62.80;9.20;;;;;;;5.80;100.00;100206.84;5009958;28;20021;-69
2023/01/30 09:23:06;;;;;;;77.70;9.57;;;;;;;5.94;100.00;100203.75;5007235;28;20556;-70
2023/01/30 09:25:31;;;;;;;64.60;9.45;;;;;;;5.81;100.00;100204.03;5040997;23;20044;-70
2023/01/30 09:27:57;;;;;;;63.25;9.23;;;;;;;5.94;100.00;100219.88;5072346;28;20040;-70
2023/01/30 09:30:22;;;;;;;71.70;10.40;;;;;;;5.87;100.00;100218.72;5068818;28;20031;-70
2023/01/30 09:32:47;;;;;;;81.80;11.02;;;;;;;5.78;100.00;100219.56;5061122;28;20129;-70
2023/01/30 09:35:13;;;;;;;63.45;9.10;;;;;;;5.83;100.00;100206.56;5074650;28;20132;-71
2023/01/30 09:37:49;;;;;;;61.15;9.88;;;;;;;5.85;100.00;100177.72;5059599;28;20032;-71
2023/01/30 09:40:21;;;;;;;57.60;9.57;;;;;;;5.85;100.00;100193.81;5083547;28;20054;-71
2023/01/30 09:43:01;;;;;;;53.55;7.78;;;;;;;5.99;100.00;100190.72;5063225;28;20296;-71
2023/01/30 09:45:44;;;;;;;51.70;8.35;;;;;;;6.00;100.00;100192.44;5083477;28;20032;-71
2023/01/30 09:48:35;;;;;;;57.72;8.35;;;;;;;6.11;100.00;100189.53;5072335;28;20050;-71
2023/01/30 09:51:13;;;;;;;63.25;9.20;;;;;;;6.11;100.00;100173.41;5051621;28;20113;-71
2023/01/30 09:54:02;;;;;;;61.92;9.13;;;;;;;6.14;100.00;100194.66;5062900;28;20059;-69
2023/01/30 09:56:28;;;;;;;69.93;9.60;;;;;;;6.16;100.00;100184.59;5051657;28;20028;-70
2023/01/30 09:59:00;;;;;;;69.72;12.25;;;;;;;6.04;100.00;100172.31;5068229;28;20039;-70
2023/01/30 10:01:50;;;;;;;;;;;;;;;5.92;100.00;100174.31;5066886;28;20036;-70
2023/01/30 10:04:27;;;;;;;54.85;8.82;;;;;;;5.75;100.00;100188.50;5075294;28;19912;-71
2023/01/30 10:07:02;;;;;;;55.85;8.68;;;;;;;5.58;100.00;100182.00;5053946;28;20036;-70
2023/01/30 10:09:52;;;;;;;53.53;8.32;;;;;;;5.36;100.00;100187.69;5074755;28;20031;-70
2023/01/30 10:12:24;;;;;;;41.10;6.82;;;;;;;4.93;100.00;100207.69;5062130;28;20043;-70
2023/01/30 10:15:15;;;;;;;42.30;8.27;;;;;;;4.60;100.00;100190.94;5065454;28;20036;-69
2023/01/30 10:17:53;;;;;;;52.20;8.73;;;;;;;4.52;100.00;100204.19;5062676;28;20055;-72
2023/01/30 10:20:51;;;;;;;55.38;5.80;;;;;;;4.62;100.00;100164.84;5067078;28;20286;-72
2023/01/30 10:23:29;;;;;;;46.65;8.02;;;;;;;4.56;100.00;100173.47;5048710;28;20037;-70
2023/01/30 10:26:02;;;;;;;48.65;7.43;;;;;;;4.34;100.00;100168.28;5055811;28;20040;-70
2023/01/30 10:28:42;;;;;;;28.25;4.80;;;;;;;4.18;100.00;100167.97;5055239;28;20048;-69
2023/01/30 10:31:12;;;;;;;27.65;4.85;;;;;;;4.28;100.00;100158.13;5070918;28;20070;-70
2023/01/30 10:33:44;;;;;;;21.00;3.72;;;;;;;4.28;100.00;100136.69;5053918;28;20020;-70
2023/01/30 10:36:23;;;;;;;31.95;4.93;;;;;;;4.26;100.00;100131.47;5047121;28;20614;-70
2023/01/30 10:38:51;;;;;;;27.83;3.50;;;;;;;4.44;100.00;100131.66;5082419;28;20050;-70
2023/01/30 10:41:20;;;;;;;32.70;3.03;;;;;;;4.52;100.00;100145.22;5071511;28;20063;-70
2023/01/30 10:43:54;;;;;;;20.05;3.75;;;;;;;4.53;100.00;100152.28;5051801;28;20066;-71
2023/01/30 10:46:33;;;;;;;19.02;3.25;;;;;;;4.65;100.00;100138.75;5057506;28;20048;-72
2023/01/30 10:49:12;;;;;;;27.15;4.32;;;;;;;4.99;100.00;100121.28;5074961;28;20024;-71
2023/01/30 10:51:51;;;;;;;32.08;5.40;;;;;;;5.17;100.00;100130.31;5054690;28;20045;-71
2023/01/30 10:54:42;;;;;;;48.13;8.13;;;;;;;5.19;100.00;100127.50;5061511;28;20046;-71
2023/01/30 10:57:29;;;;;;;46.17;7.15;;;;;;;5.17;100.00;100135.69;5080626;28;20089;-70
2023/01/30 11:00:03;;;;;;;57.70;8.30;;;;;;;5.13;100.00;100128.06;5056575;28;20036;-70
2023/01/30 11:02:47;;;;;;;52.47;8.52;;;;;;;4.93;100.00;100159.41;5061241;28;20036;-69
2023/01/30 11:05:20;;;;;;;42.70;6.57;;;;;;;4.85;100.00;100140.47;5049529;28;20035;-70
2023/01/30 11:07:47;;;;;;;40.92;6.43;;;;;;;4.86;100.00;100140.34;5053748;28;20063;-69
2023/01/30 11:10:31;;;;;;;38.85;5.95;;;;;;;4.47;100.00;100142.09;5075930;28;20028;-69
2023/01/30 11:13:13;;;;;;;23.73;3.35;;;;;;;4.02;100.00;100169.28;5086492;28;20083;-70
2023/01/30 11:15:39;;;;;;;12.45;2.78;;;;;;;3.72;100.00;100166.59;5075165;28;20021;-70
2023/01/30 11:18:06;;;;;;;19.98;2.30;;;;;;;3.69;100.00;100182.91;5060633;28;20012;-69
2023/01/30 11:20:39;;;;;;;9.10;1.30;;;;;;;3.76;100.00;100189.44;5055866;28;20020;-69
2023/01/30 11:23:19;;;;;;;16.52;2.53;;;;;;;3.75;100.00;100187.75;5066011;28;20044;-69
2023/01/30 11:25:50;;;;;;;20.55;2.95;;;;;;;3.74;100.00;100207.47;5046883;28;20084;-70
2023/01/30 11:28:18;;;;;;;18.67;2.80;;;;;;;3.72;100.00;100198.72;5058036;28;20048;-69
2023/01/30 11:30:53;;;;;;;17.67;2.42;;;;;;;3.70;100.00;100211.38;5070935;28;20034;-70